Time;durP1;ratioP1;P1;durP2;ratioP2;P2;SDS_P1;SDS_P2;PMS_P1;PMS_P2;Temp;Humidity;BMP_temperature;BMP_pressure;BME280_temperature;BME280_humidity;BME280_pressure;Samples;Min_cycle;Max_cycle;Signal;HPM_P1;HPM_P2
2021/06/14 00:01:06;;;;;;;4.43;3.80;;;18.80;99.90;;;18.69;87.08;101729.22;4169587;28;20519;-69
2021/06/14 00:03:06;;;;;;;6.40;4.63;;;18.80;99.90;;;18.70;86.86;101738.88;4169504;28;20072;-69
2021/06/14 00:05:25;;;;;;;8.18;4.35;;;18.80;99.90;;;18.72;86.92;101733.38;4169135;28;20022;-69
2021/06/14 00:07:26;;;;;;;5.72;3.45;;;18.80;99.90;;;18.65;87.09;101730.59;4169472;28;20036;-69
2021/06/14 00:09:27;;;;;;;5.85;3.60;;;18.80;99.90;;;18.72;86.60;101728.03;4168292;28;20021;-69
2021/06/14 00:11:28;;;;;;;5.53;3.88;;;18.80;99.90;;;18.68;86.77;101724.88;4169451;28;20107;-69
2021/06/14 00:13:29;;;;;;;4.60;3.30;;;18.80;99.90;;;18.67;87.04;101730.41;4169181;28;20025;-69
2021/06/14 00:15:30;;;;;;;6.20;3.30;;;18.80;99.90;;;18.68;87.02;101726.72;4168044;28;20030;-69
2021/06/14 00:17:31;;;;;;;4.88;3.65;;;18.80;99.90;;;18.63;87.15;101715.78;4167517;28;20102;-69
2021/06/14 00:19:32;;;;;;;5.70;3.45;;;18.80;99.90;;;18.64;87.13;101726.25;4169039;28;20089;-69
2021/06/14 00:21:34;;;;;;;3.92;3.50;;;18.70;99.90;;;18.62;87.17;101716.78;4169149;28;20392;-69
2021/06/14 00:23:37;;;;;;;3.88;3.40;;;18.70;99.90;;;18.64;87.03;101717.41;4168014;28;20037;-69
2021/06/14 00:25:38;;;;;;;4.55;3.47;;;18.70;99.90;;;18.57;87.39;101725.34;4167881;28;20506;-69
2021/06/14 00:27:40;;;;;;;4.95;3.25;;;18.70;99.90;;;18.57;87.21;101725.34;4169175;28;20032;-69
2021/06/14 00:29:41;;;;;;;3.97;3.45;;;18.70;99.90;;;18.60;87.03;101724.16;4167831;28;20028;-69
2021/06/14 00:31:42;;;;;;;4.75;3.47;;;18.70;99.90;;;18.62;86.99;101717.59;4169154;28;20116;-69
2021/06/14 00:33:43;;;;;;;5.72;3.85;;;18.70;99.90;;;18.61;86.96;101726.63;4169064;28;20036;-69
2021/06/14 00:35:46;;;;;;;3.72;3.20;;;18.60;99.90;;;18.54;87.26;101712.38;4168804;28;20447;-69
2021/06/14 00:37:47;;;;;;;3.75;3.20;;;18.60;99.90;;;18.63;86.82;101719.28;4167656;28;20044;-70
2021/06/14 00:39:48;;;;;;;6.10;3.75;;;18.70;99.90;;;18.62;86.82;101712.25;4168999;28;20030;-69
2021/06/14 00:41:49;;;;;;;7.13;3.58;;;18.70;99.90;;;18.58;87.14;101710.13;4168970;28;20049;-69
2021/06/14 00:43:50;;;;;;;5.47;3.70;;;18.70;99.90;;;18.53;87.06;101704.50;4168976;28;20108;-69
2021/06/14 00:45:53;;;;;;;5.47;3.40;;;18.60;99.90;;;18.51;87.21;101702.03;4168921;28;20034;-69
2021/06/14 00:47:54;;;;;;;5.97;3.60;;;18.60;99.90;;;18.54;87.45;101711.53;4167758;28;20088;-69
2021/06/14 00:49:54;;;;;;;6.18;3.45;;;18.60;99.90;;;18.56;87.23;101717.50;4168646;28;20489;-69
2021/06/14 00:51:55;;;;;;;6.13;3.50;;;18.60;99.90;;;18.44;87.33;101692.22;4168805;28;20029;-69
2021/06/14 00:54:00;;;;;;;6.30;3.85;;;18.60;99.90;;;18.50;87.25;101712.91;4167542;28;20033;-69
2021/06/14 00:56:12;;;;;;;4.50;3.13;;;18.60;99.90;;;18.50;87.48;101708.38;4167558;28;20060;-69
2021/06/14 00:58:15;;;;;;;7.68;4.07;;;18.50;99.90;;;18.46;87.21;101696.38;4168754;28;20022;-69
2021/06/14 01:00:17;;;;;;;7.72;3.83;;;18.50;99.90;;;18.43;87.27;101707.44;4168620;28;20101;-69
2021/06/14 01:02:18;;;;;;;5.53;3.42;;;18.50;99.90;;;18.43;87.15;101701.28;4167192;28;20148;-69
2021/06/14 01:04:19;;;;;;;5.65;3.30;;;18.50;99.90;;;18.36;87.16;101701.19;4167265;28;20135;-69
2021/06/14 01:06:20;;;;;;;5.72;3.60;;;18.40;99.90;;;18.24;87.36;101695.47;4168702;28;20393;-69
2021/06/14 01:08:21;;;;;;;4.15;3.70;;;18.40;99.90;;;18.23;87.84;101700.97;4167360;28;20032;-69
2021/06/14 01:10:22;;;;;;;6.93;3.40;;;18.30;99.90;;;18.28;87.38;101695.91;4168502;28;20060;-69
2021/06/14 01:12:31;;;;;;;5.72;3.45;;;18.30;99.90;;;18.20;87.53;101699.50;4167545;28;20033;-69
2021/06/14 01:15:19;;;;;;;5.10;3.67;;;18.30;99.90;;;18.06;88.03;101694.97;4167311;28;20026;-70
2021/06/14 01:17:59;;;;;;;9.63;3.70;;;18.20;99.90;;;18.11;88.01;101684.56;4159559;28;20042;-69
2021/06/14 01:20:21;;;;;;;7.50;3.78;;;18.20;99.90;;;18.11;88.17;101692.56;4166800;28;20036;-69
2021/06/14 01:23:19;;;;;;;6.35;3.67;;;18.10;99.90;;;18.09;88.30;101699.94;4168279;28;20041;-69
2021/06/14 01:26:07;;;;;;;4.97;3.65;;;18.20;99.90;;;17.94;88.67;101684.91;4168380;28;20033;-69
2021/06/14 01:28:09;;;;;;;4.47;3.20;;;18.10;99.90;;;18.01;88.83;101700.00;4155053;28;20534;-69
2021/06/14 01:30:24;;;;;;;8.23;3.63;;;18.10;99.90;;;17.99;88.47;101696.69;4167225;28;20106;-69
2021/06/14 01:32:25;;;;;;;4.40;3.85;;;18.10;99.90;;;17.92;88.76;101694.94;4168377;28;20030;-69
2021/06/14 01:34:29;;;;;;;4.00;3.47;;;18.00;99.90;;;17.85;88.98;101697.50;4150275;28;20100;-69
2021/06/14 01:36:36;;;;;;;6.55;4.47;;;18.00;99.90;;;17.85;89.06;101691.31;4168414;28;20036;-69
2021/06/14 01:38:40;;;;;;;8.50;3.88;;;18.00;99.90;;;17.74;89.49;101687.22;4167039;28;20077;-69
2021/06/14 01:40:41;;;;;;;4.55;3.90;;;17.90;99.90;;;17.73;89.96;101690.94;4166952;28;20041;-69
2021/06/14 01:42:46;;;;;;;4.25;3.15;;;17.90;99.90;;;17.74;89.86;101689.91;4167971;28;20053;-69
2021/06/14 01:44:49;;;;;;;6.88;3.63;;;17.90;99.90;;;17.67;90.22;101684.47;4167305;28;20577;-69
2021/06/14 01:46:53;;;;;;;6.15;3.55;;;17.80;99.90;;;17.72;89.65;101683.09;4168245;28;20053;-69
2021/06/14 01:48:54;;;;;;;;;;;17.80;99.90;;;17.66;90.07;101692.66;4167308;28;20028;-69
2021/06/14 01:50:56;;;;;;;7.38;3.58;;;17.80;99.90;;;17.66;90.04;101688.13;4167941;28;20003;-69
2021/06/14 01:52:59;;;;;;;5.30;4.15;;;17.80;99.90;;;17.69;89.98;101693.13;4168354;28;20049;-69
2021/06/14 01:55:00;;;;;;;6.20;3.40;;;17.80;99.90;;;17.53;90.37;101674.53;4167129;28;20030;-69
2021/06/14 01:57:02;;;;;;;5.00;4.20;;;17.70;99.90;;;17.55;90.32;101679.72;4168147;28;20029;-69
2021/06/14 01:59:07;;;;;;;6.50;3.90;;;17.70;99.90;;;17.55;90.00;101683.22;4168417;28;20028;-69
2021/06/14 02:01:08;;;;;;;8.80;4.15;;;17.70;99.90;;;17.54;90.03;101670.03;4167021;28;20029;-69
2021/06/14 02:03:12;;;;;;;4.75;3.60;;;17.60;99.90;;;17.57;90.14;101678.53;4166935;28;20091;-69
2021/06/14 02:05:14;;;;;;;;;;;17.60;99.90;;;17.42;90.42;101669.63;4168201;28;20037;-69
2021/06/14 02:07:16;;;;;;;6.45;4.45;;;17.60;99.90;;;17.43;90.96;101665.97;4168168;28;19909;-69
2021/06/14 02:09:21;;;;;;;4.97;3.30;;;17.60;99.90;;;17.55;90.67;101679.72;4166946;28;20108;-69
2021/06/14 02:11:23;;;;;;;5.50;3.92;;;17.60;99.90;;;17.63;90.47;101682.31;4167953;28;20025;-69
2021/06/14 02:13:25;;;;;;;4.60;3.90;;;17.60;99.90;;;17.59;90.13;101676.50;4166808;28;20025;-70
2021/06/14 02:15:26;;;;;;;4.53;3.72;;;17.60;99.90;;;17.49;90.42;101675.06;4167019;28;20053;-70
2021/06/14 02:17:31;;;;;;;8.50;4.00;;;17.60;99.90;;;17.36;90.37;101658.81;4167018;28;20037;-69
2021/06/14 02:19:33;;;;;;;8.68;3.72;;;17.60;99.90;;;17.25;90.83;101668.06;4167836;28;20022;-69
2021/06/14 02:21:34;;;;;;;6.72;3.88;;;17.50;99.90;;;17.26;91.22;101668.91;4167907;28;20023;-69
2021/06/14 02:23:35;;;;;;;4.75;4.15;;;17.40;99.90;;;17.25;91.37;101675.25;4167992;28;20026;-69
2021/06/14 02:25:36;;;;;;;7.88;3.83;;;17.40;99.90;;;17.27;91.40;101678.56;4167909;28;20033;-69
2021/06/14 02:27:38;;;;;;;6.90;4.05;;;17.40;99.90;;;17.28;91.65;101677.56;4168051;28;20026;-69
2021/06/14 02:29:40;;;;;;;7.18;3.92;;;17.30;99.90;;;17.35;91.37;101683.84;4167868;28;20366;-69
2021/06/14 02:31:41;;;;;;;7.60;4.00;;;17.40;99.90;;;17.31;91.26;101686.03;4168111;28;20032;-69
2021/06/14 02:33:43;;;;;;;5.15;3.47;;;17.40;99.90;;;17.25;91.40;101683.25;4166843;28;20497;-69
2021/06/14 02:35:44;;;;;;;6.45;3.72;;;17.30;99.90;;;17.10;91.74;101670.69;4167574;28;20033;-69
2021/06/14 02:37:54;;;;;;;5.95;4.07;;;17.30;99.90;;;17.13;91.73;101680.16;4166412;28;20033;-69
2021/06/14 02:39:56;;;;;;;6.00;4.25;;;17.30;99.90;;;17.16;91.63;101674.47;4169348;28;20092;-69
2021/06/14 02:41:59;;;;;;;6.80;4.00;;;17.30;99.90;;;17.17;91.93;101682.28;4170771;28;20029;-69
2021/06/14 02:44:05;;;;;;;8.63;4.63;;;17.30;99.90;;;17.07;91.88;101679.03;4170676;28;20029;-69
2021/06/14 02:46:10;;;;;;;5.65;4.30;;;17.30;99.90;;;17.05;92.28;101680.22;4169377;28;20025;-69
2021/06/14 02:48:12;;;;;;;5.97;4.13;;;17.20;99.90;;;16.97;92.53;101665.06;4169673;28;20026;-69
2021/06/14 02:50:18;;;;;;;7.10;4.30;;;17.20;99.90;;;16.99;92.45;101664.91;4170421;28;20018;-69
2021/06/14 02:52:20;;;;;;;7.20;3.50;;;17.20;99.90;;;17.01;92.18;101663.72;4169385;28;20041;-70
2021/06/14 02:54:29;;;;;;;7.45;4.00;;;17.20;99.90;;;16.99;92.03;101663.06;4169548;28;20030;-69
2021/06/14 02:56:40;;;;;;;7.88;4.05;;;17.20;99.90;;;17.06;92.05;101677.34;4169502;28;20036;-69
2021/06/14 02:58:44;;;;;;;6.97;4.00;;;17.20;99.90;;;17.13;91.51;101685.50;4169339;28;20067;-69
2021/06/14 03:00:46;;;;;;;8.02;4.75;;;17.10;99.90;;;17.01;91.61;101678.88;4169435;28;20088;-69
2021/06/14 03:02:48;;;;;;;7.20;4.00;;;17.10;99.90;;;16.88;91.92;101674.13;4170585;28;20038;-69
2021/06/14 03:04:49;;;;;;;8.23;3.92;;;17.10;99.90;;;16.84;92.13;101685.31;4169076;28;20028;-69
2021/06/14 03:06:52;;;;;;;11.65;4.93;;;17.10;99.90;;;16.79;92.23;101684.97;4169234;28;20022;-69
2021/06/14 03:08:55;;;;;;;8.70;5.03;;;17.00;99.90;;;16.79;92.95;101693.81;4169185;28;20052;-69
2021/06/14 03:10:57;;;;;;;10.48;4.40;;;16.90;99.90;;;16.89;92.66;101694.44;4169273;28;20092;-69
2021/06/14 03:13:03;;;;;;;8.65;4.90;;;17.00;99.90;;;16.97;92.20;101688.22;4170391;28;20033;-69
2021/06/14 03:15:06;;;;;;;8.48;4.13;;;17.00;99.90;;;16.83;92.39;101672.97;4170232;28;20033;-70
2021/06/14 03:17:07;;;;;;;4.45;3.78;;;17.00;99.90;;;16.81;92.77;101685.66;4170395;28;20374;-69
2021/06/14 03:19:09;;;;;;;7.10;3.95;;;17.00;99.90;;;16.78;92.95;101691.34;4169903;28;20033;-70
2021/06/14 03:21:12;;;;;;;6.53;3.97;;;16.90;99.90;;;16.74;93.39;101695.34;4170251;28;20037;-69
2021/06/14 03:23:15;;;;;;;5.95;3.92;;;16.90;99.90;;;16.72;93.61;101698.19;4169968;28;20025;-69
2021/06/14 03:25:17;;;;;;;7.53;4.33;;;16.90;99.90;;;16.71;93.86;101687.69;4168897;28;20029;-69
2021/06/14 03:27:19;;;;;;;7.07;5.00;;;16.90;99.90;;;16.77;93.88;101684.34;4170260;28;20303;-69
2021/06/14 03:29:24;;;;;;;5.95;4.43;;;16.90;99.90;;;16.83;93.62;101694.31;4168794;28;20032;-69
2021/06/14 03:31:28;;;;;;;11.77;4.43;;;16.90;99.90;;;16.85;93.51;101687.78;4170217;28;20021;-69
2021/06/14 03:33:30;;;;;;;5.82;3.90;;;16.90;99.90;;;16.78;93.84;101686.84;4168954;28;20029;-69
2021/06/14 03:35:32;;;;;;;6.53;4.30;;;16.90;99.90;;;16.83;93.84;101683.63;4168678;28;20037;-69
2021/06/14 03:37:35;;;;;;;4.45;4.00;;;16.90;99.90;;;16.74;93.83;101688.19;4197800;28;20020;-69
2021/06/14 03:39:38;;;;;;;6.80;4.55;;;16.90;99.90;;;16.89;93.04;101678.44;4201590;28;20048;-69
2021/06/14 03:41:44;;;;;;;5.57;4.55;;;16.90;99.90;;;16.85;93.37;101681.63;4169959;28;20116;-69
2021/06/14 03:43:46;;;;;;;8.50;4.40;;;16.90;99.90;;;16.80;93.98;101682.16;4169820;28;20037;-69
2021/06/14 03:45:46;;;;;;;7.03;4.18;;;16.90;99.90;;;16.80;93.94;101673.31;4169738;28;20021;-69
2021/06/14 03:47:51;;;;;;;5.28;4.28;;;16.90;99.90;;;16.70;93.97;101662.03;4169949;28;20071;-69
2021/06/14 03:49:52;;;;;;;7.03;5.00;;;16.90;99.90;;;16.76;93.69;101666.69;4169531;28;20036;-69
2021/06/14 03:51:53;;;;;;;4.72;3.90;;;16.90;99.90;;;16.81;93.62;101677.66;4168683;28;20022;-69
2021/06/14 03:53:56;;;;;;;7.18;4.47;;;16.90;99.90;;;16.84;92.99;101678.16;4169923;28;20495;-69
2021/06/14 03:56:09;;;;;;;5.45;4.13;;;16.90;99.90;;;16.84;92.73;101675.50;4169884;28;20393;-69
2021/06/14 03:58:10;;;;;;;7.88;4.50;;;16.90;99.90;;;16.77;92.59;101679.00;4168681;28;20093;-69
2021/06/14 04:00:14;;;;;;;9.05;4.45;;;16.90;99.90;;;16.78;92.55;101686.00;4169650;28;20041;-69
2021/06/14 04:02:15;;;;;;;8.05;4.50;;;16.90;99.90;;;16.68;92.79;101672.88;4169147;28;20033;-69
2021/06/14 04:06:35;;;;;;;6.65;4.15;;;16.80;99.90;;;16.65;93.42;101686.56;4169718;28;20041;-69
2021/06/14 04:08:39;;;;;;;10.60;5.47;;;16.80;99.90;;;16.51;93.87;101685.41;4169378;28;20505;-69
2021/06/14 04:10:40;;;;;;;9.63;4.75;;;16.70;99.90;;;16.51;94.26;101682.75;4169576;28;20026;-69
2021/06/14 04:12:41;;;;;;;7.40;4.18;;;16.70;99.90;;;16.53;94.85;101686.06;4168158;28;20029;-69
2021/06/14 04:14:43;;;;;;;5.40;4.45;;;16.70;99.90;;;16.62;94.84;101680.72;4169476;28;20037;-69
2021/06/14 04:16:44;;;;;;;5.03;4.15;;;16.70;99.90;;;16.69;94.81;101684.38;4169350;28;20052;-69
2021/06/14 04:18:44;;;;;;;7.18;4.40;;;16.80;99.90;;;16.72;94.61;101682.22;4169289;28;20021;-69
2021/06/14 04:20:45;;;;;;;5.20;4.07;;;16.80;99.90;;;16.68;94.42;101686.22;4169121;28;20025;-69
2021/06/14 04:22:46;;;;;;;4.78;3.92;;;16.80;99.90;;;16.76;93.84;101686.16;4169241;28;20033;-69
2021/06/14 04:24:48;;;;;;;6.85;4.55;;;16.80;99.90;;;16.73;93.62;101680.34;4167943;28;20608;-69
2021/06/14 04:26:49;;;;;;;9.20;4.60;;;16.80;99.90;;;16.65;93.56;101683.06;4169349;28;20171;-69
2021/06/14 04:28:50;;;;;;;13.48;5.35;;;16.80;99.90;;;16.68;93.75;101688.88;4168003;28;20033;-69
2021/06/14 04:30:50;;;;;;;9.35;4.90;;;16.80;99.90;;;16.55;94.30;101676.09;4169243;28;20029;-69
2021/06/14 04:32:51;;;;;;;7.57;4.28;;;16.80;99.90;;;16.57;94.72;101671.44;4169068;28;20448;-69
2021/06/14 04:34:54;;;;;;;8.48;4.43;;;16.80;99.90;;;16.74;93.95;101684.69;4167623;28;20048;-69
2021/06/14 04:36:55;;;;;;;11.57;4.53;;;16.80;99.90;;;16.74;93.58;101674.03;4160160;28;20034;-69
2021/06/14 04:38:56;;;;;;;5.65;4.07;;;16.90;99.90;;;16.73;93.93;101691.00;4168845;28;20049;-69
2021/06/14 04:40:57;;;;;;;9.68;4.57;;;16.90;99.90;;;16.79;93.56;101687.66;4168681;28;20090;-69
2021/06/14 04:42:58;;;;;;;7.10;4.32;;;16.90;99.90;;;16.78;93.48;101681.50;4168930;28;20045;-69
2021/06/14 04:44:58;;;;;;;10.85;5.53;;;16.90;99.90;;;16.79;93.37;101684.97;4167782;28;20079;-69
2021/06/14 04:46:59;;;;;;;7.88;5.05;;;17.00;99.90;;;16.85;93.01;101685.13;4169093;28;20512;-69
2021/06/14 04:49:00;;;;;;;10.65;5.47;;;17.00;99.90;;;16.87;93.42;101684.97;4168456;28;20025;-69
2021/06/14 04:51:01;;;;;;;13.23;5.30;;;17.00;99.90;;;16.85;93.53;101673.63;4168987;28;20439;-69
2021/06/14 04:53:03;;;;;;;12.32;5.28;;;17.00;99.90;;;16.89;93.77;101682.94;4169053;28;20389;-69
2021/06/14 04:55:05;;;;;;;10.18;4.93;;;17.10;99.90;;;16.91;93.59;101676.44;4168799;28;20033;-69
2021/06/14 04:57:06;;;;;;;10.07;5.10;;;17.10;99.90;;;16.85;93.91;101670.97;4167529;28;20398;-69
2021/06/14 04:59:07;;;;;;;5.78;5.20;;;17.10;99.90;;;16.95;94.04;101672.44;4168914;28;20029;-69
2021/06/14 05:01:08;;;;;;;8.77;5.70;;;17.10;99.90;;;16.94;94.15;101684.09;4168807;28;20061;-69
2021/06/14 05:03:10;;;;;;;8.82;5.60;;;17.20;99.90;;;17.00;94.04;101677.22;4168388;28;20034;-69
2021/06/14 05:05:11;;;;;;;9.98;5.93;;;17.20;99.90;;;17.00;93.96;101666.56;4168439;28;20018;-69
2021/06/14 05:07:12;;;;;;;9.35;6.50;;;17.20;99.90;;;16.97;94.44;101675.72;4168779;28;20032;-69
2021/06/14 05:09:13;;;;;;;7.57;5.18;;;17.30;99.90;;;16.96;94.90;101682.09;4167650;28;20033;-69
2021/06/14 05:11:14;;;;;;;6.15;5.47;;;17.30;99.90;;;16.98;94.59;101676.56;4168722;28;20041;-69
2021/06/14 05:13:16;;;;;;;10.73;6.43;;;17.30;99.90;;;17.08;94.17;101686.00;4168648;28;20025;-69
2021/06/14 05:15:17;;;;;;;11.10;6.35;;;17.30;99.90;;;17.14;93.97;101676.50;4168752;28;20037;-69
2021/06/14 05:17:18;;;;;;;6.00;5.35;;;17.40;99.90;;;17.14;94.06;101671.97;4167454;28;20029;-69
2021/06/14 05:19:19;;;;;;;9.18;6.90;;;17.40;99.90;;;17.13;94.26;101677.50;4167207;28;20022;-69
2021/06/14 05:21:20;;;;;;;8.00;5.35;;;17.40;99.90;;;17.13;94.51;101686.31;4168503;28;20039;-69
2021/06/14 05:23:21;;;;;;;5.95;5.10;;;17.40;99.90;;;17.23;94.14;101693.28;4168595;28;20095;-69
2021/06/14 05:25:23;;;;;;;11.32;5.78;;;17.50;99.90;;;17.26;93.89;101688.41;4168717;28;20096;-69
2021/06/14 05:27:23;;;;;;;8.68;5.30;;;17.50;99.90;;;17.29;93.97;101689.91;4168497;28;20500;-69
2021/06/14 05:29:25;;;;;;;7.13;5.10;;;17.50;99.90;;;17.39;93.32;101691.31;4168310;28;20026;-69
2021/06/14 05:31:25;;;;;;;5.70;4.53;;;17.60;99.90;;;17.37;93.60;101682.66;4168464;28;20029;-69
2021/06/14 05:33:26;;;;;;;6.82;5.35;;;17.70;99.90;;;17.51;93.15;101699.72;4168526;28;20032;-69
2021/06/14 05:35:28;;;;;;;14.27;6.38;;;17.70;99.90;;;17.53;92.58;101687.88;4166665;28;20033;-69
2021/06/14 05:37:28;;;;;;;8.75;5.20;;;17.80;99.90;;;17.68;91.80;101685.31;4168414;28;20025;-69
2021/06/14 05:39:29;;;;;;;7.93;5.32;;;17.90;99.90;;;17.78;91.78;101688.53;4168102;28;20060;-69
2021/06/14 05:41:30;;;;;;;10.35;5.95;;;17.90;99.90;;;17.73;92.70;101685.59;4168411;28;20029;-69
2021/06/14 05:43:32;;;;;;;6.55;5.13;;;18.00;99.90;;;17.75;92.88;101690.72;4168281;28;20555;-69
2021/06/14 05:45:33;;;;;;;7.88;6.13;;;18.10;99.90;;;17.85;91.73;101686.81;4168318;28;20067;-69
2021/06/14 05:47:34;;;;;;;7.80;5.60;;;18.10;99.90;;;18.02;90.70;101685.66;4168142;28;20500;-69
2021/06/14 05:49:35;;;;;;;6.85;5.45;;;18.20;99.90;;;18.12;89.76;101680.06;4166726;28;20025;-69
2021/06/14 05:51:38;;;;;;;9.07;5.90;;;18.30;99.90;;;18.13;88.93;101671.84;4168008;28;20017;-69
2021/06/14 05:53:39;;;;;;;6.10;5.15;;;18.40;99.90;;;18.29;89.02;101683.38;4168313;28;20025;-69
2021/06/14 05:55:40;;;;;;;7.65;6.10;;;18.50;99.90;;;18.32;88.13;101686.53;4168090;28;20045;-69
2021/06/14 05:57:41;;;;;;;11.02;6.00;;;18.60;99.90;;;18.52;86.67;101693.00;4172328;28;20115;-70
2021/06/14 05:59:42;;;;;;;7.55;6.00;;;18.60;99.90;;;18.53;86.28;101693.81;4167952;28;20036;-70
2021/06/14 06:01:43;;;;;;;8.15;6.03;;;18.70;99.90;;;18.53;86.26;101692.00;4172536;28;20017;-69
2021/06/14 06:03:44;;;;;;;9.02;5.60;;;18.80;99.90;;;18.57;85.57;101692.47;4169818;28;20520;-69
2021/06/14 06:05:44;;;;;;;6.63;5.80;;;18.80;99.90;;;18.66;85.17;101696.69;4167924;28;20370;-70
2021/06/14 06:07:45;;;;;;;5.90;5.22;;;18.90;99.90;;;18.66;85.45;101696.69;4168088;28;20029;-70
2021/06/14 06:09:46;;;;;;;6.85;5.60;;;18.90;99.90;;;18.70;85.13;101684.59;4167720;28;20018;-70
2021/06/14 06:11:47;;;;;;;6.72;5.10;;;19.00;99.90;;;18.71;85.35;101697.78;4167850;28;20389;-70
2021/06/14 06:13:48;;;;;;;6.90;4.95;;;19.00;99.90;;;18.74;85.45;101694.75;4166526;28;20075;-70
2021/06/14 06:15:49;;;;;;;6.65;5.43;;;19.00;99.90;;;18.78;85.47;101695.22;4170526;28;20473;-69
2021/06/14 06:17:51;;;;;;;8.77;5.22;;;19.10;99.90;;;18.84;85.76;101697.13;4170056;28;20025;-70
2021/06/14 06:19:52;;;;;;;6.13;5.10;;;19.20;99.90;;;18.85;85.80;101705.97;4170358;28;20037;-69
2021/06/14 06:21:53;;;;;;;6.35;4.85;;;19.20;99.90;;;18.96;85.46;101713.53;4168567;28;20026;-69
2021/06/14 06:23:54;;;;;;;7.18;4.95;;;19.20;99.90;;;18.99;85.07;101716.66;4168761;28;20061;-69
2021/06/14 06:25:55;;;;;;;5.72;5.13;;;19.30;99.90;;;19.00;85.00;101715.63;4170877;28;20080;-69
2021/06/14 06:27:56;;;;;;;6.32;4.47;;;19.30;99.90;;;19.10;84.49;101715.34;4170794;28;20079;-69
2021/06/14 06:29:57;;;;;;;9.07;5.15;;;19.40;99.90;;;19.16;84.30;101714.59;4169276;28;20033;-69
2021/06/14 06:31:57;;;;;;;5.90;5.20;;;19.50;99.90;;;19.32;83.62;101725.06;4169691;28;20044;-69
2021/06/14 06:33:58;;;;;;;6.95;5.57;;;19.50;99.90;;;19.36;83.76;101723.66;4170513;28;20032;-69
2021/06/14 06:35:59;;;;;;;6.00;4.43;;;19.60;99.90;;;19.31;84.30;101720.72;4170774;28;20021;-69
2021/06/14 06:38:01;;;;;;;8.80;4.53;;;19.70;99.90;;;19.43;84.28;101723.75;4169676;28;20052;-68
2021/06/14 06:40:02;;;;;;;5.47;4.20;;;19.70;99.90;;;19.41;84.29;101717.78;4170237;28;20077;-69
2021/06/14 06:42:03;;;;;;;5.60;4.45;;;19.80;99.90;;;19.54;82.52;101724.09;4169356;28;20084;-69
2021/06/14 06:44:05;;;;;;;4.57;3.92;;;19.90;99.90;;;19.56;80.59;101723.91;4169561;28;20025;-69
2021/06/14 06:46:06;;;;;;;5.20;3.78;;;19.90;99.90;;;19.67;80.64;101726.91;4169495;28;20025;-69
2021/06/14 06:48:07;;;;;;;4.90;3.97;;;20.00;99.90;;;19.67;80.84;101724.22;4170701;28;20030;-69
2021/06/14 06:50:09;;;;;;;5.10;3.63;;;20.00;99.90;;;19.84;79.78;101725.59;4169899;28;20026;-69
2021/06/14 06:52:11;;;;;;;4.93;3.67;;;20.20;99.90;;;19.81;80.69;101726.00;4166046;28;20022;-69
2021/06/14 06:54:12;;;;;;;6.03;4.13;;;20.20;99.90;;;19.98;77.78;101731.09;4170188;28;20465;-69
2021/06/14 06:56:13;;;;;;;5.68;3.08;;;20.30;99.90;;;19.99;78.65;101722.00;4170504;28;20378;-69
2021/06/14 06:58:14;;;;;;;5.38;3.70;;;20.30;99.90;;;19.99;78.31;101730.88;4170214;28;20036;-69
2021/06/14 07:00:19;;;;;;;4.57;3.60;;;20.40;99.90;;;20.04;78.21;101733.78;4170172;28;20103;-69
2021/06/14 07:02:20;;;;;;;6.38;3.80;;;20.40;99.90;;;20.12;77.90;101727.50;4170100;28;20475;-68
2021/06/14 07:04:21;;;;;;;9.15;4.10;;;20.50;99.90;;;20.23;76.76;101732.31;4170027;28;20036;-69
2021/06/14 07:06:22;;;;;;;6.32;4.28;;;20.50;99.90;;;20.24;76.59;101733.97;4170218;28;20025;-70
2021/06/14 07:08:23;;;;;;;4.85;4.20;;;20.60;99.90;;;20.32;77.00;101723.97;4170046;28;20084;-70
2021/06/14 07:10:24;;;;;;;5.57;3.95;;;20.70;99.90;;;20.38;77.17;101725.03;4177484;28;20025;-69
2021/06/14 07:12:25;;;;;;;8.38;4.10;;;20.80;99.90;;;20.42;77.58;101724.44;4170263;28;20061;-69
2021/06/14 07:14:26;;;;;;;5.55;3.88;;;20.80;99.90;;;20.41;77.22;101719.28;4170245;28;20025;-69
2021/06/14 07:16:27;;;;;;;4.93;3.78;;;20.90;99.90;;;20.53;77.49;101727.59;4170176;28;20086;-69
2021/06/14 07:18:28;;;;;;;4.82;3.38;;;20.90;99.90;;;20.61;76.02;101727.44;4168607;28;20037;-68
2021/06/14 07:20:30;;;;;;;4.05;3.47;;;21.00;99.90;;;20.61;76.59;101727.44;4169703;28;20108;-68
2021/06/14 07:22:31;;;;;;;3.78;2.95;;;21.00;99.90;;;20.63;77.11;101728.91;4170067;28;20026;-68
2021/06/14 07:24:32;;;;;;;4.78;3.92;;;21.10;99.90;;;20.69;77.81;101740.69;4170024;28;20021;-68
2021/06/14 07:26:34;;;;;;;6.38;4.03;;;21.10;99.90;;;20.70;78.02;101729.75;4169759;28;20060;-68
2021/06/14 07:28:35;;;;;;;8.27;3.70;;;21.10;99.90;;;20.82;78.13;101728.16;4169832;28;20116;-68
2021/06/14 07:30:36;;;;;;;4.28;3.85;;;21.20;99.90;;;20.87;77.37;101733.78;4169798;28;20028;-68
2021/06/14 07:32:38;;;;;;;7.63;3.70;;;21.30;99.90;;;20.95;74.56;101725.56;4169862;28;20033;-68
2021/06/14 07:34:39;;;;;;;8.40;4.13;;;21.40;99.90;;;20.94;74.53;101721.19;4168122;28;20107;-68
2021/06/14 07:36:40;;;;;;;5.82;3.80;;;21.40;99.90;;;21.08;74.23;101718.59;4158844;28;20029;-68
2021/06/14 07:38:41;;;;;;;5.50;3.60;;;21.50;99.90;;;21.14;74.35;101729.38;4169563;28;20046;-68
2021/06/14 07:40:43;;;;;;;7.40;4.38;;;21.60;99.90;;;21.26;74.28;101718.88;4169594;28;20112;-68
2021/06/14 07:42:44;;;;;;;4.40;3.90;;;21.70;99.90;;;21.36;74.92;101716.63;4169634;28;20021;-68
2021/06/14 07:44:45;;;;;;;3.70;2.88;;;21.80;99.90;;;21.50;71.81;101715.63;4169873;28;20025;-68
2021/06/14 07:46:46;;;;;;;7.38;3.53;;;21.90;99.90;;;21.58;70.43;101709.22;4169962;28;20123;-68
2021/06/14 07:48:48;;;;;;;3.83;2.90;;;22.00;99.90;;;21.65;70.13;101705.53;4168167;28;20029;-68
2021/06/14 07:50:51;;;;;;;5.88;3.40;;;22.10;99.90;;;21.86;71.30;101708.00;4169288;28;20108;-68
2021/06/14 07:52:52;;;;;;;4.13;2.67;;;22.20;99.90;;;21.94;71.64;101702.47;4169614;28;20052;-68
2021/06/14 07:54:53;;;;;;;3.63;2.90;;;22.30;99.90;;;22.01;72.45;101703.28;4169462;28;20026;-68
2021/06/14 07:56:54;;;;;;;5.85;3.25;;;22.50;99.90;;;22.17;72.30;101702.03;4169695;28;20032;-68
2021/06/14 07:58:55;;;;;;;6.50;3.30;;;22.60;99.90;;;22.30;70.09;101704.72;4169483;28;20052;-68
2021/06/14 08:00:56;;;;;;;5.68;3.17;;;22.70;99.90;;;22.55;65.45;101702.16;4169561;28;20435;-68
2021/06/14 08:02:57;;;;;;;5.78;2.58;;;23.00;99.90;;;22.65;63.86;101696.38;4169358;28;20029;-68
2021/06/14 08:04:58;;;;;;;6.32;2.60;;;23.10;99.90;;;22.76;62.68;101693.84;4168050;28;20025;-68
2021/06/14 08:06:59;;;;;;;4.13;2.80;;;23.30;99.90;;;22.88;63.72;101702.91;4169158;28;20030;-68
2021/06/14 08:09:03;;;;;;;2.55;2.35;;;23.40;99.90;;;23.04;64.84;101705.13;4169271;28;20488;-68
2021/06/14 08:11:05;;;;;;;4.53;2.65;;;23.50;99.90;;;23.19;64.88;101706.69;4168175;28;20479;-68
2021/06/14 08:13:07;;;;;;;5.32;2.70;;;23.70;99.90;;;23.35;66.23;101700.81;4169239;28;20026;-68
2021/06/14 08:15:09;;;;;;;5.25;2.55;;;23.80;99.90;;;23.38;64.08;101697.69;4168739;28;20087;-69
2021/06/14 08:17:10;;;;;;;5.07;3.08;;;23.90;99.90;;;23.52;63.41;101701.97;4169069;28;20432;-68
2021/06/14 08:26:08;;;;;;;6.03;2.53;;;24.50;99.90;;;24.14;61.10;101701.06;4169143;28;20043;-68
2021/06/14 08:28:09;;;;;;;4.97;2.50;;;24.70;99.50;;;24.20;62.22;101694.78;4169078;28;20018;-68
2021/06/14 08:30:15;;;;;;;4.50;2.35;;;24.80;99.70;;;24.38;58.55;101700.22;4167649;28;20025;-68
2021/06/14 08:32:17;;;;;;;5.88;2.63;;;24.90;97.80;;;24.52;59.67;101706.31;4168893;28;20648;-69
2021/06/14 08:34:17;;;;;;;2.85;2.30;;;25.10;98.30;;;24.66;58.53;101705.09;4168550;28;20037;-69
2021/06/14 08:36:20;;;;;;;2.47;2.28;;;25.20;98.10;;;24.69;58.40;101694.69;4168719;28;20084;-69
2021/06/14 08:38:21;;;;;;;4.50;2.97;;;25.40;97.60;;;24.80;57.89;101703.88;4166892;28;20029;-68
2021/06/14 08:40:35;;;;;;;7.45;2.33;;;25.40;97.10;;;24.84;58.91;101699.72;4168933;28;20071;-68